Pagrindinis puslapis
METAR-TAF:

METAR-TAF

Oro uostai :

Albertus Airport

Freeport, Ilinojus, Jungtinės Amerikos Valstijos

platuma: 42-14-47N, ilguma: 089-34-56W, Aukštis: 262 m

Dabartinis oras

Ataskaita buvo paskelbta 19 minutes, ne 03:55 UTC
Vėjas 5 kt iš Pietų
Temperatūra -14°C
Drėgmė 66%
Slėgis 1027 hPa
Matomumas: 16.1 km
Giedras dangus

METAR: KFEP 130355Z AUTO 17005KT 10SM CLR M14/M19 A3034 RMK AO2 T11451190

Laikas: 22:14 (04:14 UTC)


TAF: trūkstamas

Orai ataskaitas ir orų prognozės (METAR, TAF).

turimą stotys yra geltonos ir raudonos taškus žemėlapyje.

Perkelti pele per norėdami pamatyti stoties vardą.

Tada spustelėkite, norėdami matyti oro stebėjimo ir prognozės.

Norėdami pakeisti žemėlapį: spustelėkite ant žalios mygtukų su juodo kryžiaus žemyn,; žalią mygtuką su brūkšneliu, jei norite nutolinti; arba žalių rodyklių gretimoms žemėlapius.


METAR-TAF: